Time;durP1;ratioP1;P1;durP2;ratioP2;P2;SDS_P1;SDS_P2;PMS_P1;PMS_P2;Temp;Humidity;BMP_temperature;BMP_pressure;BME280_temperature;BME280_humidity;BME280_pressure;Samples;Min_cycle;Max_cycle;Signal;HPM_P1;HPM_P2
2022/01/16 00:04:09;;;;;;;51.22;17.88;;;;;;;0.13;96.61;102313.97;5030029;28;20037;-73
2022/01/16 00:06:35;;;;;;;48.20;17.88;;;;;;;0.16;96.82;102330.03;5010511;28;20087;-74
2022/01/16 00:09:01;;;;;;;48.17;17.08;;;;;;;0.15;97.06;102308.63;5026631;28;20032;-74
2022/01/16 00:11:27;;;;;;;46.83;17.55;;;;;;;0.14;96.88;102318.47;5027312;28;20018;-75
2022/01/16 00:13:52;;;;;;;43.67;17.08;;;;;;;0.15;96.88;102319.34;5022072;28;20029;-76
2022/01/16 00:16:18;;;;;;;42.92;18.00;;;;;;;0.18;96.91;102325.53;5025021;28;20033;-74
2022/01/16 00:18:52;;;;;;;41.17;18.33;;;;;;;0.16;96.97;102321.13;5026510;28;20044;-74
2022/01/16 00:21:22;;;;;;;45.83;17.08;;;;;;;0.18;97.01;102322.88;5022060;28;20033;-76
2022/01/16 00:23:48;;;;;;;43.40;17.05;;;;;;;0.17;96.95;102315.75;5018527;28;20481;-74
2022/01/16 00:26:13;;;;;;;53.20;17.40;;;;;;;0.14;97.08;102312.19;5026621;28;20028;-74
2022/01/16 00:28:39;;;;;;;44.50;18.42;;;;;;;0.14;96.94;102310.44;5020302;28;20028;-75
2022/01/16 00:31:04;;;;;;;42.67;17.17;;;;;;;0.14;96.32;102297.03;5021317;28;20038;-75
2022/01/16 00:33:29;;;;;;;39.30;16.65;;;;;;;0.12;96.89;102285.44;5021908;28;20034;-76
2022/01/16 00:35:54;;;;;;;43.47;18.02;;;;;;;0.12;96.89;102309.53;5008133;28;20156;-74
2022/01/16 00:38:20;;;;;;;43.42;17.00;;;;;;;0.15;96.81;102308.63;5025915;28;20037;-75
2022/01/16 00:40:45;;;;;;;44.30;17.95;;;;;;;0.17;96.78;102310.38;5018683;28;20034;-74
2022/01/16 00:43:11;;;;;;;39.05;16.95;;;;;;;0.18;96.90;102309.47;5019137;28;20387;-76
2022/01/16 00:45:36;;;;;;;41.50;17.15;;;;;;;0.20;96.87;102310.38;5012554;28;20040;-75
2022/01/16 00:48:03;;;;;;;43.03;16.38;;;;;;;0.19;96.63;102307.72;5022352;28;20013;-75
2022/01/16 00:50:29;;;;;;;50.30;17.85;;;;;;;0.18;96.91;102297.88;5022209;28;20609;-76
2022/01/16 00:52:55;;;;;;;44.85;17.42;;;;;;;0.18;96.99;102309.47;5026843;28;20083;-74
2022/01/16 00:55:21;;;;;;;51.60;18.63;;;;;;;0.20;96.91;102313.06;5019734;28;20092;-75
2022/01/16 00:57:46;;;;;;;49.38;19.27;;;;;;;0.18;96.73;102285.41;5025936;28;20540;-74
2022/01/16 01:00:11;;;;;;;46.70;18.02;;;;;;;0.20;96.98;102269.34;5015052;28;20044;-74
2022/01/16 01:02:37;;;;;;;48.55;18.30;;;;;;;0.18;96.88;102263.09;5014266;28;20017;-75
2022/01/16 01:05:02;;;;;;;44.05;16.42;;;;;;;0.20;97.04;102282.75;5022240;28;20021;-75
2022/01/16 01:07:27;;;;;;;42.38;17.10;;;;;;;0.21;97.02;102277.38;5018807;28;20507;-76
2022/01/16 01:09:53;;;;;;;46.22;17.00;;;;;;;0.24;97.13;102269.31;5027367;28;20017;-75
2022/01/16 01:12:33;;;;;;;51.90;19.13;;;;;;;0.25;96.96;102281.81;5009780;28;20064;-75
2022/01/16 01:15:09;;;;;;;50.97;17.42;;;;;;;0.30;96.91;102291.59;5015562;28;20022;-76
2022/01/16 01:17:43;;;;;;;55.08;18.88;;;;;;;0.31;97.04;102286.22;5028899;28;20139;-75
2022/01/16 01:20:10;;;;;;;49.97;18.17;;;;;;;0.33;96.92;102267.50;5020863;28;20032;-75
2022/01/16 01:22:35;;;;;;;59.38;19.08;;;;;;;0.32;97.02;102274.59;5028913;28;20037;-74
2022/01/16 01:25:00;;;;;;;51.90;18.50;;;;;;;0.35;96.92;102255.84;5020365;28;20355;-75
2022/01/16 01:27:30;;;;;;;56.17;18.50;;;;;;;0.36;96.97;102279.03;5009693;28;20050;-76
2022/01/16 01:30:02;;;;;;;55.58;19.55;;;;;;;0.35;97.09;102282.63;5014607;28;20110;-75
2022/01/16 01:32:28;;;;;;;56.67;19.05;;;;;;;0.35;97.18;102276.38;5027965;28;20067;-73
2022/01/16 01:34:53;;;;;;;60.40;19.15;;;;;;;0.39;97.17;102270.13;5021446;28;20445;-75
2022/01/16 01:37:18;;;;;;;56.50;18.48;;;;;;;0.38;97.08;102231.75;5021510;28;20028;-76
2022/01/16 01:39:43;;;;;;;62.45;19.48;;;;;;;0.36;96.97;102200.53;5021513;28;20018;-74
2022/01/16 01:42:11;;;;;;;59.60;21.42;;;;;;;0.34;97.25;102197.00;5023105;28;20445;-74
2022/01/16 01:52:53;;;;;;;71.28;22.25;;;;;;;0.35;97.40;102228.19;5012900;28;20143;-74
2022/01/16 01:55:19;;;;;;;62.88;22.63;;;;;;;0.37;97.56;102239.78;5026171;28;20089;-74
2022/01/16 01:57:44;;;;;;;68.40;21.95;;;;;;;0.35;97.63;102253.19;5025573;28;20389;-74
2022/01/16 02:00:17;;;;;;;67.22;22.45;;;;;;;0.38;97.66;102266.56;5021222;28;20025;-75
2022/01/16 02:03:01;;;;;;;;;;;;;;;0.40;97.45;102267.41;5025561;28;20029;-74
2022/01/16 02:05:26;;;;;;;75.53;22.13;;;;;;;0.37;97.48;102277.25;5017578;28;19917;-74
2022/01/16 02:07:52;;;;;;;66.88;22.27;;;;;;;0.37;97.62;102285.28;5027854;28;20032;-74
2022/01/16 02:10:17;;;;;;;68.88;22.05;;;;;;;0.36;97.79;102286.19;5014638;28;20573;-74
2022/01/16 02:12:45;;;;;;;62.15;21.08;;;;;;;0.36;97.80;102278.16;5020268;28;20454;-74
2022/01/16 02:15:36;;;;;;;76.60;22.92;;;;;;;0.34;97.90;102274.63;5006640;28;20088;-76
2022/01/16 02:29:47;;;;;;;66.72;22.70;;;;;;;0.22;97.89;102287.16;5025260;28;20036;-75
2022/01/16 02:32:12;;;;;;;62.03;20.85;;;;;;;0.22;97.66;102299.66;5014140;28;20061;-75
2022/01/16 02:34:41;;;;;;;65.18;21.73;;;;;;;0.21;97.97;102316.63;5025247;28;20107;-75
2022/01/16 02:37:11;;;;;;;65.03;21.90;;;;;;;0.18;97.74;102308.59;5017899;28;20026;-76
2022/01/16 02:39:40;;;;;;;70.63;22.67;;;;;;;0.15;97.82;102314.88;5016250;28;20488;-74
2022/01/16 02:42:07;;;;;;;87.90;23.73;;;;;;;0.12;97.74;102305.97;5026569;28;20112;-74
2022/01/16 02:45:00;;;;;;;57.63;21.60;;;;;;;0.09;97.75;102296.16;5024951;28;20037;-75
2022/01/16 02:47:25;;;;;;;62.70;22.57;;;;;;;0.07;97.85;102294.41;5017611;28;20017;-75
2022/01/16 02:49:51;;;;;;;72.05;22.05;;;;;;;0.08;97.85;102282.78;5023923;28;20384;-74
2022/01/16 02:52:20;;;;;;;57.47;19.80;;;;;;;0.08;97.85;102280.13;5024498;28;20025;-74
2022/01/16 02:54:48;;;;;;;64.70;20.83;;;;;;;0.08;97.75;102277.44;5024737;28;20089;-74
2022/01/16 02:57:16;;;;;;;59.67;22.05;;;;;;;0.08;97.72;102270.31;5027544;28;20026;-75
2022/01/16 02:59:48;;;;;;;59.47;22.02;;;;;;;0.08;97.79;102245.34;5017059;28;20035;-75
2022/01/16 03:02:15;;;;;;;60.13;20.60;;;;;;;0.09;97.67;102253.34;5020132;28;20436;-74
2022/01/16 03:04:40;;;;;;;62.13;22.25;;;;;;;0.08;97.66;102242.66;5022253;28;20116;-75
2022/01/16 03:07:06;;;;;;;76.38;21.15;;;;;;;0.06;97.63;102249.84;5019400;28;20513;-76
2022/01/16 03:10:24;;;;;;;54.72;20.52;;;;;;;0.02;97.67;102235.56;5021654;28;20117;-75
2022/01/16 03:12:25;;;;;;;56.10;21.95;;;;;;;0.10;97.83;102238.22;5031024;28;20125;-76
2022/01/16 03:14:51;;;;;;;56.47;20.27;;;;;;;0.11;98.03;102238.19;5020189;28;20431;-75
2022/01/16 03:17:34;;;;;;;61.90;22.05;;;;;;;0.13;97.67;102230.13;5021313;28;20025;-74
2022/01/16 03:22:43;;;;;;;69.90;20.70;;;;;;;0.12;97.70;102233.72;5024624;28;20044;-73
2022/01/16 03:25:09;;;;;;;56.55;21.33;;;;;;;0.14;97.65;102227.47;5026370;28;20029;-74
2022/01/16 03:27:36;;;;;;;56.00;21.95;;;;;;;0.18;97.56;102229.19;5023913;28;20021;-74
2022/01/16 03:30:02;;;;;;;59.83;22.35;;;;;;;0.18;97.62;102221.19;5026028;28;20034;-74
2022/01/16 03:32:27;;;;;;;61.92;22.55;;;;;;;0.20;97.62;102224.75;5030014;28;20029;-75
2022/01/16 03:34:52;;;;;;;66.03;24.15;;;;;;;0.19;97.31;102222.09;5024611;28;20482;-76
2022/01/16 03:37:17;;;;;;;64.38;22.02;;;;;;;0.18;97.60;102212.25;5029164;28;20056;-76
2022/01/16 03:39:43;;;;;;;71.28;25.05;;;;;;;0.22;97.59;102216.69;5031110;28;20029;-74
2022/01/16 03:42:09;;;;;;;57.67;21.45;;;;;;;0.26;97.49;102215.78;5022497;28;20029;-74
2022/01/16 03:44:35;;;;;;;64.45;23.60;;;;;;;0.28;97.41;102210.41;5028385;28;20033;-74
2022/01/16 03:47:01;;;;;;;68.80;24.00;;;;;;;0.24;97.49;102206.88;5021368;28;20029;-75
2022/01/16 03:49:29;;;;;;;68.22;25.63;;;;;;;0.29;97.61;102218.44;5026451;28;20447;-76
2022/01/16 03:51:56;;;;;;;63.45;25.20;;;;;;;0.29;97.72;102226.47;5010589;28;20041;-74
2022/01/16 03:54:24;;;;;;;72.72;26.00;;;;;;;0.29;97.72;102217.56;5027769;28;20044;-73
2022/01/16 03:56:50;;;;;;;69.22;25.17;;;;;;;0.28;97.86;102221.09;5026476;28;20042;-74
2022/01/16 03:59:16;;;;;;;73.70;27.58;;;;;;;0.31;97.91;102218.41;5020286;28;20100;-74
2022/01/16 04:01:42;;;;;;;78.63;26.30;;;;;;;0.34;97.86;102224.66;5027165;28;20388;-74
2022/01/16 04:04:07;;;;;;;70.40;26.30;;;;;;;0.35;97.68;102223.72;5030165;28;20033;-74
2022/01/16 04:06:33;;;;;;;76.38;28.40;;;;;;;0.37;97.86;102229.06;5011080;28;20036;-73
2022/01/16 04:08:59;;;;;;;71.38;28.50;;;;;;;0.38;97.92;102223.72;5009809;28;20033;-76
2022/01/16 04:11:27;;;;;;;76.45;28.60;;;;;;;0.40;97.88;102223.69;5020653;28;20082;-74
2022/01/16 04:14:03;;;;;;;72.40;29.00;;;;;;;0.40;97.82;102219.22;5019530;28;20060;-75
2022/01/16 04:16:28;;;;;;;74.75;27.80;;;;;;;0.42;97.85;102227.22;5020138;28;20037;-75
2022/01/16 04:18:54;;;;;;;78.65;27.90;;;;;;;0.42;97.81;102220.13;5028901;28;20420;-76
2022/01/16 04:21:20;;;;;;;71.93;28.23;;;;;;;0.47;97.88;102217.41;5019998;28;20387;-74
2022/01/16 04:23:46;;;;;;;69.35;28.08;;;;;;;0.45;97.84;102208.47;5029471;28;20033;-76
2022/01/16 04:26:12;;;;;;;75.30;26.40;;;;;;;0.43;97.64;102211.19;5026901;28;20033;-74
2022/01/16 04:28:37;;;;;;;77.45;30.98;;;;;;;0.42;97.70;102213.84;5011714;28;20367;-74
2022/01/16 04:31:03;;;;;;;70.43;28.83;;;;;;;0.43;97.79;102212.97;5019735;28;20529;-74
2022/01/16 04:33:29;;;;;;;77.18;27.10;;;;;;;0.37;97.77;102204.97;5015003;28;20026;-74
2022/01/16 04:35:54;;;;;;;76.10;27.75;;;;;;;0.41;97.65;102215.66;5012592;28;20040;-74
2022/01/16 04:38:20;;;;;;;70.55;27.70;;;;;;;0.41;97.83;102210.28;5027898;28;20021;-75
2022/01/16 04:43:47;;;;;;;72.32;29.52;;;;;;;0.42;97.86;102208.50;5015621;28;20041;-73
2022/01/16 04:43:51;;;;;;;75.07;28.52;;;;;;;0.43;98.04;102207.63;5026424;28;20029;-73
2022/01/16 04:46:21;;;;;;;77.57;29.08;;;;;;;0.42;97.87;102213.84;5015498;28;20071;-73
2022/01/16 04:48:47;;;;;;;71.45;28.65;;;;;;;0.42;98.05;102211.19;5027923;28;20028;-75
2022/01/16 04:51:13;;;;;;;72.05;28.50;;;;;;;0.41;98.01;102204.94;5025039;28;20041;-73
2022/01/16 04:53:39;;;;;;;74.25;30.30;;;;;;;0.41;97.90;102202.25;5027725;28;20477;-73
2022/01/16 04:56:06;;;;;;;79.07;29.25;;;;;;;0.41;98.45;102196.91;5028982;28;20405;-74
2022/01/16 04:58:34;;;;;;;86.32;32.22;;;;;;;0.42;98.23;102201.38;5015461;28;20156;-77
2022/01/16 05:01:00;;;;;;;66.93;29.13;;;;;;;0.45;98.15;102201.34;5023906;28;20032;-74
2022/01/16 05:03:27;;;;;;;69.40;28.08;;;;;;;0.44;98.35;102194.22;5024800;28;20030;-74
2022/01/16 05:05:54;;;;;;;75.97;32.00;;;;;;;0.44;98.29;102196.00;5019023;28;20032;-75
2022/01/16 05:08:19;;;;;;;73.90;30.75;;;;;;;0.45;98.44;102189.75;5019401;28;20036;-75
2022/01/16 05:10:45;;;;;;;76.88;30.65;;;;;;;0.46;98.41;102186.16;5013946;28;20033;-76
2022/01/16 05:18:47;;;;;;;76.95;32.17;;;;;;;0.52;98.62;102191.47;5028430;28;20056;-75
2022/01/16 05:21:12;;;;;;;80.20;32.13;;;;;;;0.52;98.53;102190.59;5019220;28;20025;-74
2022/01/16 05:23:39;;;;;;;82.57;34.47;;;;;;;0.54;98.79;102186.97;5012504;28;20045;-76
2022/01/16 05:26:06;;;;;;;80.63;33.72;;;;;;;0.55;98.70;102183.41;5021817;28;20021;-77
2022/01/16 05:28:31;;;;;;;83.97;33.03;;;;;;;0.56;99.00;102185.19;5016984;28;20032;-76
2022/01/16 05:30:57;;;;;;;74.38;33.92;;;;;;;0.56;98.74;102192.31;5016634;28;20389;-77
2022/01/16 05:33:22;;;;;;;77.40;33.30;;;;;;;0.58;98.63;102179.81;5028343;28;20020;-76
2022/01/16 05:35:47;;;;;;;83.50;32.63;;;;;;;0.60;98.89;102189.59;5023109;28;20053;-75
2022/01/16 05:38:13;;;;;;;82.68;32.83;;;;;;;0.62;99.19;102193.16;5026503;28;20045;-76
2022/01/16 05:40:38;;;;;;;76.50;33.38;;;;;;;0.64;98.85;102190.47;5027541;28;20056;-76
2022/01/16 05:43:04;;;;;;;80.45;33.67;;;;;;;0.65;98.83;102190.47;5028695;28;20028;-76
2022/01/16 05:45:30;;;;;;;85.45;34.25;;;;;;;0.68;98.91;102197.56;5020683;28;20083;-74
2022/01/16 05:47:56;;;;;;;94.80;35.92;;;;;;;0.67;99.01;102195.78;5016116;28;20064;-75
2022/01/16 05:50:22;;;;;;;79.45;32.75;;;;;;;0.68;99.06;102209.16;5011220;28;20022;-76
2022/01/16 05:52:48;;;;;;;85.43;33.35;;;;;;;0.72;98.85;102202.00;5023116;28;20072;-76
2022/01/16 05:55:14;;;;;;;78.65;35.35;;;;;;;0.74;98.84;102206.41;5026282;28;20833;-76
2022/01/16 05:57:40;;;;;;;77.55;34.55;;;;;;;0.74;99.10;102203.72;5028093;28;20410;-75
2022/01/16 06:00:07;;;;;;;84.60;36.33;;;;;;;0.75;99.18;102194.81;5012710;28;20038;-75
2022/01/16 06:02:32;;;;;;;88.00;33.90;;;;;;;0.78;99.17;102207.28;5018766;28;20030;-76
2022/01/16 06:04:57;;;;;;;79.18;34.38;;;;;;;0.80;99.17;102200.13;5015950;28;20091;-75
2022/01/16 06:07:22;;;;;;;93.80;37.28;;;;;;;0.81;98.87;102192.97;5027576;28;20017;-76
2022/01/16 06:09:48;;;;;;;90.53;35.17;;;;;;;0.85;99.44;102200.09;5027973;28;20029;-74
2022/01/16 06:12:13;;;;;;;88.63;34.15;;;;;;;0.85;99.37;102203.66;5016038;28;20030;-76
2022/01/16 06:14:38;;;;;;;91.70;35.53;;;;;;;0.87;99.18;102193.78;5018377;28;20028;-76
2022/01/16 06:17:04;;;;;;;91.38;35.78;;;;;;;0.93;99.55;102201.78;5008149;28;20026;-75
2022/01/16 06:19:29;;;;;;;87.28;34.20;;;;;;;0.97;99.38;102199.94;5018233;28;20022;-76
2022/01/16 06:21:55;;;;;;;92.55;36.47;;;;;;;0.97;99.13;102197.25;5018669;28;20037;-75
2022/01/16 06:24:20;;;;;;;95.55;37.38;;;;;;;1.00;99.64;102198.13;5027534;28;20492;-76
2022/01/16 06:26:46;;;;;;;92.50;37.97;;;;;;;1.08;99.55;102206.06;5027181;28;20534;-76
2022/01/16 06:29:11;;;;;;;100.78;38.72;;;;;;;1.09;99.47;102205.16;5019247;28;20030;-75
2022/01/16 06:31:38;;;;;;;92.05;37.85;;;;;;;1.13;99.56;102200.66;5016940;28;20037;-75
2022/01/16 06:34:05;;;;;;;96.72;35.35;;;;;;;1.14;99.62;102216.72;5020763;28;20065;-75
2022/01/16 06:36:31;;;;;;;105.55;39.58;;;;;;;1.19;99.56;102213.97;5022246;28;20465;-75
2022/01/16 06:38:57;;;;;;;92.85;35.63;;;;;;;1.23;99.59;102232.69;5015856;28;20189;-76
2022/01/16 06:41:23;;;;;;;96.50;39.22;;;;;;;1.26;99.32;102230.00;5027125;28;20056;-75
2022/01/16 06:43:48;;;;;;;108.25;39.85;;;;;;;1.32;99.57;102234.38;5027385;28;20044;-76
2022/01/16 06:46:13;;;;;;;95.63;35.55;;;;;;;1.36;99.67;102232.56;5023341;28;20037;-75
2022/01/16 06:48:40;;;;;;;97.82;38.03;;;;;;;1.40;99.53;102234.28;5022794;28;20079;-74
2022/01/16 06:51:07;;;;;;;91.85;36.33;;;;;;;1.42;99.32;102243.19;5014211;28;20573;-74
2022/01/16 06:53:33;;;;;;;99.00;38.72;;;;;;;1.45;99.77;102243.19;5024354;28;20029;-75
2022/01/16 06:55:58;;;;;;;101.18;38.65;;;;;;;1.49;99.52;102242.19;5026081;28;20037;-74
2022/01/16 06:58:24;;;;;;;90.10;36.85;;;;;;;1.49;99.30;102244.88;5022617;28;20619;-76
2022/01/16 07:00:49;;;;;;;87.60;34.63;;;;;;;1.52;99.36;102245.75;5017049;28;20037;-75
2022/01/16 07:03:15;;;;;;;91.38;37.50;;;;;;;1.53;99.22;102244.81;5009373;28;20605;-75
2022/01/16 07:05:42;;;;;;;89.90;37.28;;;;;;;1.54;99.07;102248.44;5015323;28;20028;-75
2022/01/16 07:08:07;;;;;;;96.90;35.80;;;;;;;1.55;99.03;102236.78;5018670;28;20037;-75
2022/01/16 07:10:33;;;;;;;83.15;35.65;;;;;;;1.60;99.09;102252.81;5016468;28;20026;-73
2022/01/16 07:12:58;;;;;;;91.93;36.63;;;;;;;1.61;99.00;102260.84;5019852;28;20037;-74
2022/01/16 07:15:25;;;;;;;88.07;34.95;;;;;;;1.62;98.90;102262.59;5011989;28;20034;-74
2022/01/16 07:17:50;;;;;;;98.03;34.33;;;;;;;1.65;98.93;102273.31;5012609;28;20084;-74
2022/01/16 07:20:15;;;;;;;89.75;34.22;;;;;;;1.67;98.99;102284.88;5015143;28;20076;-74
2022/01/16 07:22:42;;;;;;;84.22;33.47;;;;;;;1.70;98.79;102286.66;5021741;28;20139;-75
2022/01/16 07:25:08;;;;;;;79.15;34.25;;;;;;;1.71;98.75;102299.16;5024408;28;20025;-77
2022/01/16 07:27:33;;;;;;;95.57;35.25;;;;;;;1.73;98.83;102295.56;5024744;28;20033;-75
2022/01/16 07:29:59;;;;;;;80.57;33.97;;;;;;;1.73;98.52;102303.63;5013010;28;20489;-77
2022/01/16 07:32:24;;;;;;;81.10;34.33;;;;;;;1.77;98.63;102307.13;5017886;28;20026;-75
2022/01/16 07:34:50;;;;;;;77.82;30.95;;;;;;;1.78;98.52;102312.50;5013938;28;20061;-75
2022/01/16 07:37:15;;;;;;;80.18;33.35;;;;;;;1.77;98.47;102307.13;5028027;28;20026;-75
2022/01/16 07:39:40;;;;;;;78.07;33.05;;;;;;;1.82;98.35;102324.06;5012585;28;20580;-77
2022/01/16 07:42:06;;;;;;;82.38;33.65;;;;;;;1.85;98.57;102315.09;5018622;28;20036;-75
2022/01/16 07:44:31;;;;;;;80.57;34.28;;;;;;;1.85;98.53;102305.25;5009194;28;20466;-77
2022/01/16 07:46:57;;;;;;;78.07;31.55;;;;;;;1.89;98.09;102309.66;5017494;28;20022;-74
2022/01/16 07:49:22;;;;;;;74.65;31.75;;;;;;;1.92;98.47;102319.47;5019471;28;20028;-74
2022/01/16 07:51:47;;;;;;;78.93;31.30;;;;;;;1.94;98.55;102320.34;5012398;28;20516;-75
2022/01/16 07:54:12;;;;;;;81.03;30.13;;;;;;;1.97;98.36;102323.00;5015023;28;20030;-75
2022/01/16 07:56:38;;;;;;;68.78;29.70;;;;;;;1.99;98.31;102335.47;5009442;28;20045;-75
2022/01/16 07:59:03;;;;;;;73.75;29.50;;;;;;;2.00;98.28;102339.91;5012636;28;20061;-74
2022/01/16 08:01:28;;;;;;;78.20;29.88;;;;;;;2.03;98.39;102339.00;5017756;28;20030;-76
2022/01/16 08:03:53;;;;;;;71.13;29.52;;;;;;;2.07;98.39;102346.13;5019994;28;20057;-75
2022/01/16 08:06:19;;;;;;;67.80;29.48;;;;;;;2.09;98.21;102338.91;5015239;28;20026;-74
2022/01/16 08:08:44;;;;;;;72.45;30.13;;;;;;;2.13;98.15;102339.78;5023181;28;20377;-75
2022/01/16 08:11:10;;;;;;;71.78;29.38;;;;;;;2.17;98.15;102336.13;5020273;28;20017;-74
2022/01/16 08:13:36;;;;;;;80.45;30.80;;;;;;;2.19;98.29;102334.31;5013580;28;20064;-75
2022/01/16 08:16:06;;;;;;;75.20;30.33;;;;;;;2.21;98.26;102328.03;5008505;28;20022;-75
2022/01/16 08:18:31;;;;;;;69.68;28.95;;;;;;;2.23;97.99;102331.56;5009792;28;20881;-75
2022/01/16 08:20:57;;;;;;;74.60;29.63;;;;;;;2.26;98.24;102325.28;5008738;28;20062;-75
2022/01/16 08:23:22;;;;;;;72.68;29.33;;;;;;;2.26;97.57;102318.09;5009710;28;20029;-74
2022/01/16 08:25:47;;;;;;;73.85;29.13;;;;;;;2.30;98.63;102311.78;5008502;28;20438;-74
2022/01/16 08:28:13;;;;;;;77.03;33.25;;;;;;;2.33;97.89;102318.88;5016301;28;20026;-76
2022/01/16 08:30:38;;;;;;;69.65;31.02;;;;;;;2.34;98.07;102307.25;5008778;28;20045;-74
2022/01/16 08:33:04;;;;;;;72.93;28.08;;;;;;;2.37;98.13;102315.25;5014400;28;20028;-75
2022/01/16 08:35:29;;;;;;;81.85;31.08;;;;;;;2.40;98.05;102312.53;5018573;28;20025;-74
2022/01/16 08:37:54;;;;;;;67.03;28.58;;;;;;;2.40;98.09;102312.53;5008955;28;20616;-75
2022/01/16 08:40:20;;;;;;;64.45;29.92;;;;;;;2.44;97.83;102305.31;5007718;28;20395;-75
2022/01/16 08:42:45;;;;;;;76.93;30.05;;;;;;;2.46;97.97;102314.22;5009628;28;20088;-74
2022/01/16 08:45:11;;;;;;;77.35;29.65;;;;;;;2.46;97.90;102317.78;5007586;28;20069;-76
2022/01/16 08:47:37;;;;;;;72.50;30.33;;;;;;;2.50;98.21;102318.66;5024398;28;20022;-76
2022/01/16 08:50:04;;;;;;;80.68;31.30;;;;;;;2.53;97.90;102321.28;5009199;28;20080;-74
2022/01/16 08:52:30;;;;;;;74.35;29.70;;;;;;;2.53;98.18;102324.88;5009124;28;20072;-76
2022/01/16 08:54:55;;;;;;;70.72;27.95;;;;;;;2.58;97.92;102331.97;5008749;28;20059;-75
2022/01/16 08:57:20;;;;;;;77.45;31.88;;;;;;;2.62;98.08;102337.28;5007761;28;20096;-75
2022/01/16 08:59:47;;;;;;;78.35;29.75;;;;;;;2.64;98.14;102338.13;5008291;28;20061;-75
2022/01/16 09:02:12;;;;;;;85.28;31.27;;;;;;;2.65;98.03;102339.88;5010080;28;20496;-76
2022/01/16 09:04:38;;;;;;;85.05;30.00;;;;;;;2.65;97.96;102342.56;5006241;28;20032;-76
2022/01/16 09:07:04;;;;;;;76.35;31.08;;;;;;;2.72;97.81;102344.28;5008873;28;20033;-76
2022/01/16 09:09:31;;;;;;;82.88;30.42;;;;;;;2.73;97.89;102348.72;5008375;28;20062;-77
2022/01/16 09:11:56;;;;;;;77.13;29.08;;;;;;;2.80;97.70;102358.47;5020845;28;20335;-74
2022/01/16 09:14:21;;;;;;;72.93;30.33;;;;;;;2.83;98.08;102353.97;5018616;28;20111;-74
2022/01/16 09:16:46;;;;;;;72.75;29.23;;;;;;;2.87;97.73;102353.00;5019850;28;20047;-75
2022/01/16 09:19:12;;;;;;;80.88;30.00;;;;;;;2.90;97.69;102355.66;5028051;28;20022;-74
2022/01/16 09:21:37;;;;;;;81.63;30.13;;;;;;;2.94;97.78;102366.31;5019907;28;20036;-75
2022/01/16 09:24:02;;;;;;;73.78;29.63;;;;;;;2.98;97.63;102373.41;5028498;28;20017;-76
2022/01/16 09:26:28;;;;;;;83.85;30.67;;;;;;;3.02;97.62;102369.75;5036908;28;20051;-75
2022/01/16 09:28:53;;;;;;;84.25;33.22;;;;;;;3.05;nan;102358.06;5023184;28;20056;-74
2022/01/16 09:31:19;;;;;;;84.93;30.88;;;;;;;3.11;97.48;102368.72;5020201;28;20388;-76
2022/01/16 09:33:45;;;;;;;83.72;33.08;;;;;;;3.14;97.24;102374.06;5028900;28;20029;-75
2022/01/16 09:36:10;;;;;;;95.20;34.08;;;;;;;3.19;97.44;102382.91;5016703;28;20026;-76
2022/01/16 09:38:37;;;;;;;88.55;33.88;;;;;;;3.23;97.45;102386.44;5028833;28;20026;-76
2022/01/16 09:41:04;;;;;;;92.82;37.03;;;;;;;3.29;97.39;102391.72;5024692;28;20496;-75
2022/01/16 09:43:30;;;;;;;112.03;35.63;;;;;;;3.31;97.31;102388.09;5016631;28;20048;-74
2022/01/16 09:45:56;;;;;;;106.55;35.28;;;;;;;3.35;97.33;102399.66;5018330;28;20664;-74
2022/01/16 09:48:21;;;;;;;109.35;35.47;;;;;;;3.30;97.35;102391.69;5028567;28;20100;-73
2022/01/16 09:50:47;;;;;;;102.13;34.05;;;;;;;3.38;97.03;102398.75;5016511;28;20079;-74
2022/01/16 09:53:12;;;;;;;112.68;35.17;;;;;;;3.39;97.05;102398.72;5014773;28;20021;-75
2022/01/16 09:55:39;;;;;;;114.07;37.05;;;;;;;3.42;97.35;102401.34;5021386;28;20121;-75
2022/01/16 09:58:04;;;;;;;105.10;37.03;;;;;;;3.44;96.91;102396.81;5027225;28;20374;-75
2022/01/16 10:00:30;;;;;;;116.38;38.20;;;;;;;3.45;97.19;102403.09;5020033;28;20025;-75
2022/01/16 10:02:55;;;;;;;104.38;35.28;;;;;;;3.47;97.39;102406.66;5025617;28;20025;-76
2022/01/16 10:05:35;;;;;;;124.90;37.58;;;;;;;3.51;97.25;102416.44;5019983;28;20385;-74
2022/01/16 10:08:04;;;;;;;114.75;37.97;;;;;;;3.55;97.25;102420.88;5015446;28;20022;-74
2022/01/16 10:10:38;;;;;;;109.15;35.30;;;;;;;3.61;97.09;102427.94;5024285;28;20060;-75
2022/01/16 10:13:24;;;;;;;114.50;37.50;;;;;;;3.66;97.36;102426.03;5024882;28;20523;-75
2022/01/16 10:15:54;;;;;;;106.43;33.97;;;;;;;3.69;96.88;102434.94;5012288;28;20025;-74
2022/01/16 10:18:36;;;;;;;113.60;37.38;;;;;;;3.75;96.91;102439.31;5031840;28;20048;-75
2022/01/16 10:21:01;;;;;;;110.85;36.72;;;;;;;3.78;96.96;102434.78;5022131;28;20432;-74
2022/01/16 10:23:27;;;;;;;116.65;35.95;;;;;;;3.80;96.91;102449.09;5031316;28;20071;-74
2022/01/16 10:25:52;;;;;;;104.75;38.38;;;;;;;3.82;96.54;102435.59;5030943;28;20025;-76
2022/01/16 10:28:23;;;;;;;107.20;36.47;;;;;;;3.88;96.96;102440.88;5021942;28;20013;-75
2022/01/16 10:30:51;;;;;;;105.93;35.47;;;;;;;3.91;96.53;102439.91;5032151;28;20080;-74
2022/01/16 10:33:19;;;;;;;104.70;32.28;;;;;;;3.94;96.08;102438.06;5014969;28;20052;-75
2022/01/16 10:35:47;;;;;;;106.72;34.00;;;;;;;3.98;96.48;102442.47;5026585;28;20039;-75
2022/01/16 10:38:18;;;;;;;100.25;33.40;;;;;;;4.11;96.68;102444.94;5031268;28;20025;-75
2022/01/16 10:40:44;;;;;;;106.47;32.35;;;;;;;4.16;95.96;102434.97;5030886;28;20028;-74
2022/01/16 10:43:13;;;;;;;104.40;33.45;;;;;;;4.18;96.04;102441.19;5031837;28;20385;-74
2022/01/16 10:45:40;;;;;;;99.68;32.45;;;;;;;4.25;96.24;102454.50;5015324;28;20561;-75
2022/01/16 10:48:06;;;;;;;93.40;32.00;;;;;;;4.31;95.61;102442.72;5031414;28;20021;-74
2022/01/16 10:50:36;;;;;;;98.72;33.08;;;;;;;4.43;95.73;102441.56;5026529;28;20032;-74
2022/01/16 10:53:10;;;;;;;101.30;33.08;;;;;;;4.50;95.64;102433.31;5031557;28;20057;-74
2022/01/16 10:55:56;;;;;;;99.95;32.15;;;;;;;4.57;95.62;102440.38;5029114;28;20440;-74
2022/01/16 10:58:23;;;;;;;99.60;33.10;;;;;;;4.61;95.52;102435.78;5029702;28;20029;-74
2022/01/16 11:00:52;;;;;;;102.35;31.65;;;;;;;4.62;94.67;102440.25;5017709;28;20466;-75
2022/01/16 11:03:18;;;;;;;96.53;30.85;;;;;;;4.61;94.47;102449.25;5030642;28;20017;-74
2022/01/16 11:05:45;;;;;;;87.25;31.05;;;;;;;4.60;94.35;102453.75;5019793;28;20033;-75
2022/01/16 11:08:12;;;;;;;86.07;30.90;;;;;;;4.60;94.94;102448.34;5018221;28;20470;-76
2022/01/16 11:10:46;;;;;;;95.20;31.60;;;;;;;4.57;94.28;102447.56;5028204;28;20032;-75
2022/01/16 11:13:15;;;;;;;90.35;30.77;;;;;;;4.51;94.79;102450.38;5030598;28;20193;-75
2022/01/16 11:15:42;;;;;;;101.47;32.38;;;;;;;4.50;94.99;102446.78;5017081;28;20087;-75
2022/01/16 11:18:09;;;;;;;94.35;33.83;;;;;;;4.42;94.79;102448.75;5030467;28;20037;-76
2022/01/16 11:20:37;;;;;;;90.95;30.63;;;;;;;4.41;94.94;102449.69;5026557;28;20032;-75
2022/01/16 11:25:42;;;;;;;95.13;31.73;;;;;;;4.38;95.04;102447.03;5029421;28;20029;-76
2022/01/16 11:28:13;;;;;;;95.05;32.80;;;;;;;4.35;95.24;102452.50;5028607;28;20052;-75
2022/01/16 11:30:41;;;;;;;90.68;31.50;;;;;;;4.32;95.10;102457.94;5019770;28;20029;-75
2022/01/16 11:33:07;;;;;;;82.57;30.17;;;;;;;4.31;95.28;102457.06;5020969;28;20079;-75
2022/01/16 11:35:34;;;;;;;89.95;30.00;;;;;;;4.31;95.41;102451.69;5024478;28;20458;-75
2022/01/16 11:38:00;;;;;;;98.50;32.60;;;;;;;4.32;95.46;102455.25;5030216;28;20018;-75
2022/01/16 11:40:37;;;;;;;95.68;31.60;;;;;;;4.33;95.56;102454.34;5022373;28;20029;-75
2022/01/16 11:43:19;;;;;;;91.72;30.38;;;;;;;4.30;95.47;102458.00;5030779;28;20079;-75
2022/01/16 11:45:48;;;;;;;83.90;30.60;;;;;;;4.25;95.56;102451.81;5024885;28;20481;-75
2022/01/16 11:48:33;;;;;;;91.70;30.13;;;;;;;4.27;95.41;102443.69;5030261;28;20072;-75
2022/01/16 11:50:59;;;;;;;85.80;29.02;;;;;;;4.28;95.49;102445.47;5019950;28;20028;-74